aviador You're here:

LFST Decoded Metar

STRASSBOURG in FRANCE
Report Time2018-06-17 23:30:00
UTC Time2018-06-17 23:51:05
Flight Rules vfr VFR
Wind250° at 02 kt
W.Decomp.*RWY 23: 1.9 kt HW 0.7 kt RCW
W.Rank250° ranks 17
Current wind is below 250° avg. (6.8)
Visibility9999 m
Phenomena:N/A
Clouds:N/A
Expected CloudBase > 1,600 ft AGL from Temp-Dew spread
CeilingNone
Temp17°C (ISA +3)
Dew Point13°C (77% RH)
QNH1022 hPa
Density Alt758 ft
Elevation505 ft
Report Wrong Elevation
Raw Report
LFST 172330Z AUTO 25002KT CAVOK 17/13 Q1022 NOSIG=

Extra information for LFST:More info

Metar Taf Metar & Taf Last 4 Metars F.Rules Stats Wind Profile Meteogram Temp Stats Airport Information Weather charts Add Link Nearby VenuesMetar ALERT Operation Metar Decoded Social comments